sensor_id;sensor_type;location;lat;lon;timestamp;pressure;altitude;pressure_sealevel;temperature;humidity
55590;BME280;41452;42.780;23.116;2023-07-13T00:00:12;94666.13;;;20.38;90.73
55590;BME280;41452;42.780;23.116;2023-07-13T00:02:41;94667.69;;;20.39;90.23
55590;BME280;41452;42.780;23.116;2023-07-13T00:05:07;94661.91;;;20.32;90.15
55590;BME280;41452;42.780;23.116;2023-07-13T00:07:33;94654.19;;;20.06;89.93
55590;BME280;41452;42.780;23.116;2023-07-13T00:09:58;94661.09;;;20.07;91.21
55590;BME280;41452;42.780;23.116;2023-07-13T00:12:30;94662.91;;;20.12;90.49
55590;BME280;41452;42.780;23.116;2023-07-13T00:14:57;94659.50;;;20.06;90.15
55590;BME280;41452;42.780;23.116;2023-07-13T00:17:25;94634.88;;;19.90;90.20
55590;BME280;41452;42.780;23.116;2023-07-13T00:19:50;94651.06;;;19.99;90.57
55590;BME280;41452;42.780;23.116;2023-07-13T00:22:17;94616.59;;;19.79;90.95
55590;BME280;41452;42.780;23.116;2023-07-13T00:24:44;94638.84;;;19.93;91.12
55590;BME280;41452;42.780;23.116;2023-07-13T00:27:09;94643.63;;;19.96;90.56
55590;BME280;41452;42.780;23.116;2023-07-13T00:29:35;94624.66;;;19.68;90.82
55590;BME280;41452;42.780;23.116;2023-07-13T00:32:05;94646.50;;;19.70;90.13
55590;BME280;41452;42.780;23.116;2023-07-13T00:34:31;94629.56;;;19.56;90.96
55590;BME280;41452;42.780;23.116;2023-07-13T00:36:57;94644.66;;;19.66;91.07
55590;BME280;41452;42.780;23.116;2023-07-13T00:39:22;94615.81;;;19.44;91.11
55590;BME280;41452;42.780;23.116;2023-07-13T00:41:49;94639.09;;;19.62;91.12
55590;BME280;41452;42.780;23.116;2023-07-13T00:44:15;94637.06;;;19.49;91.40
55590;BME280;41452;42.780;23.116;2023-07-13T00:46:41;94642.13;;;19.50;91.98
55590;BME280;41452;42.780;23.116;2023-07-13T00:49:09;94596.28;;;19.24;92.02
55590;BME280;41452;42.780;23.116;2023-07-13T00:51:51;94605.47;;;19.37;91.04
55590;BME280;41452;42.780;23.116;2023-07-13T00:54:22;94637.25;;;19.57;91.11
55590;BME280;41452;42.780;23.116;2023-07-13T00:56:51;94633.94;;;19.42;91.47
55590;BME280;41452;42.780;23.116;2023-07-13T00:59:18;94622.28;;;19.32;92.22
55590;BME280;41452;42.780;23.116;2023-07-13T01:01:45;94610.59;;;19.28;92.43
55590;BME280;41452;42.780;23.116;2023-07-13T01:04:11;94648.03;;;19.47;92.50
55590;BME280;41452;42.780;23.116;2023-07-13T01:06:37;94642.72;;;19.42;92.98
55590;BME280;41452;42.780;23.116;2023-07-13T01:09:04;94641.91;;;19.42;93.34
55590;BME280;41452;42.780;23.116;2023-07-13T01:11:30;94629.72;;;19.35;92.80
55590;BME280;41452;42.780;23.116;2023-07-13T01:13:56;94645.69;;;19.35;93.06
55590;BME280;41452;42.780;23.116;2023-07-13T01:16:27;94626.06;;;19.26;93.14
55590;BME280;41452;42.780;23.116;2023-07-13T01:18:54;94616.25;;;19.22;93.66
55590;BME280;41452;42.780;23.116;2023-07-13T01:21:23;94640.91;;;19.32;93.78
55590;BME280;41452;42.780;23.116;2023-07-13T01:23:49;94636.19;;;19.29;93.77
55590;BME280;41452;42.780;23.116;2023-07-13T01:26:15;94632.19;;;19.27;94.12
55590;BME280;41452;42.780;23.116;2023-07-13T01:28:41;94620.28;;;19.19;94.25
55590;BME280;41452;42.780;23.116;2023-07-13T01:31:06;94630.09;;;19.18;94.63
55590;BME280;41452;42.780;23.116;2023-07-13T01:33:33;94597.84;;;18.86;94.75
55590;BME280;41452;42.780;23.116;2023-07-13T01:35:59;94635.00;;;19.06;95.39
55590;BME280;41452;42.780;23.116;2023-07-13T01:38:25;94611.91;;;18.96;95.22
55590;BME280;41452;42.780;23.116;2023-07-13T01:40:52;94622.19;;;19.13;95.36
55590;BME280;41452;42.780;23.116;2023-07-13T01:43:18;94620.56;;;19.12;95.42
55590;BME280;41452;42.780;23.116;2023-07-13T01:45:44;94617.22;;;18.96;95.91
55590;BME280;41452;42.780;23.116;2023-07-13T01:48:11;94616.97;;;18.93;96.55
55590;BME280;41452;42.780;23.116;2023-07-13T01:50:36;94627.91;;;18.86;96.21
55590;BME280;41452;42.780;23.116;2023-07-13T01:53:02;94624.97;;;18.88;96.85
55590;BME280;41452;42.780;23.116;2023-07-13T01:55:29;94625.78;;;18.88;96.88
55590;BME280;41452;42.780;23.116;2023-07-13T01:57:54;94626.63;;;18.84;96.98
55590;BME280;41452;42.780;23.116;2023-07-13T02:00:20;94630.66;;;18.71;97.05
55590;BME280;41452;42.780;23.116;2023-07-13T02:02:45;94631.44;;;18.71;96.78
55590;BME280;41452;42.780;23.116;2023-07-13T02:05:11;94615.25;;;18.62;96.97
55590;BME280;41452;42.780;23.116;2023-07-13T02:07:37;94617.63;;;18.69;97.00
55590;BME280;41452;42.780;23.116;2023-07-13T02:10:03;94632.22;;;18.72;97.09
55590;BME280;41452;42.780;23.116;2023-07-13T02:12:29;94627.41;;;18.74;97.29
55590;BME280;41452;42.780;23.116;2023-07-13T02:14:54;94623.19;;;18.73;97.23
55590;BME280;41452;42.780;23.116;2023-07-13T02:17:19;94625.84;;;18.73;97.72
55590;BME280;41452;42.780;23.116;2023-07-13T02:19:45;94626.38;;;18.75;97.55
55590;BME280;41452;42.780;23.116;2023-07-13T02:22:11;94624.28;;;18.61;97.54
55590;BME280;41452;42.780;23.116;2023-07-13T02:24:36;94605.66;;;18.61;98.47
55590;BME280;41452;42.780;23.116;2023-07-13T02:27:03;94633.88;;;18.62;98.65
55590;BME280;41452;42.780;23.116;2023-07-13T02:29:29;94628.81;;;18.61;98.47
55590;BME280;41452;42.780;23.116;2023-07-13T02:31:54;94634.41;;;18.59;98.59
55590;BME280;41452;42.780;23.116;2023-07-13T02:34:20;94623.22;;;18.62;98.79
55590;BME280;41452;42.780;23.116;2023-07-13T02:36:45;94629.59;;;18.61;98.39
55590;BME280;41452;42.780;23.116;2023-07-13T02:39:12;94628.59;;;18.52;98.65
55590;BME280;41452;42.780;23.116;2023-07-13T02:41:37;94627.03;;;18.51;99.27
55590;BME280;41452;42.780;23.116;2023-07-13T02:44:03;94637.09;;;18.49;99.36
55590;BME280;41452;42.780;23.116;2023-07-13T02:46:30;94591.53;;;18.16;99.44
55590;BME280;41452;42.780;23.116;2023-07-13T02:48:55;94633.94;;;18.42;100.00
55590;BME280;41452;42.780;23.116;2023-07-13T02:51:21;94631.28;;;18.42;100.00
55590;BME280;41452;42.780;23.116;2023-07-13T02:53:46;94643.50;;;18.48;100.00
55590;BME280;41452;42.780;23.116;2023-07-13T02:56:12;94639.25;;;18.47;100.00
55590;BME280;41452;42.780;23.116;2023-07-13T02:58:37;94636.09;;;18.40;100.00
55590;BME280;41452;42.780;23.116;2023-07-13T03:01:07;94641.91;;;18.42;100.00
55590;BME280;41452;42.780;23.116;2023-07-13T03:03:33;94642.75;;;18.37;100.00
55590;BME280;41452;42.780;23.116;2023-07-13T03:06:00;94644.34;;;18.38;100.00
55590;BME280;41452;42.780;23.116;2023-07-13T03:08:27;94644.34;;;18.38;100.00
55590;BME280;41452;42.780;23.116;2023-07-13T03:11:03;94644.59;;;18.42;100.00
55590;BME280;41452;42.780;23.116;2023-07-13T03:13:30;94649.69;;;18.28;100.00
55590;BME280;41452;42.780;23.116;2023-07-13T03:15:56;94648.66;;;18.19;100.00
55590;BME280;41452;42.780;23.116;2023-07-13T03:18:21;94645.22;;;18.13;100.00
55590;BME280;41452;42.780;23.116;2023-07-13T03:20:50;94653.72;;;18.10;100.00
55590;BME280;41452;42.780;23.116;2023-07-13T03:23:16;94656.94;;;18.12;100.00
55590;BME280;41452;42.780;23.116;2023-07-13T03:25:42;94663.28;;;18.16;100.00
55590;BME280;41452;42.780;23.116;2023-07-13T03:28:07;94644.41;;;18.18;100.00
55590;BME280;41452;42.780;23.116;2023-07-13T03:30:33;94657.97;;;18.21;100.00
55590;BME280;41452;42.780;23.116;2023-07-13T03:32:58;94641.75;;;18.13;100.00
55590;BME280;41452;42.780;23.116;2023-07-13T03:35:23;94645.72;;;18.20;100.00
55590;BME280;41452;42.780;23.116;2023-07-13T03:37:49;94648.38;;;18.20;100.00
55590;BME280;41452;42.780;23.116;2023-07-13T03:40:14;94635.09;;;18.15;100.00
55590;BME280;41452;42.780;23.116;2023-07-13T03:42:40;94654.72;;;18.30;100.00
55590;BME280;41452;42.780;23.116;2023-07-13T03:45:06;94631.13;;;18.18;100.00
55590;BME280;41452;42.780;23.116;2023-07-13T03:47:31;94654.78;;;18.19;100.00
55590;BME280;41452;42.780;23.116;2023-07-13T03:49:56;94658.47;;;18.23;100.00
55590;BME280;41452;42.780;23.116;2023-07-13T03:52:22;94659.78;;;18.26;100.00
55590;BME280;41452;42.780;23.116;2023-07-13T03:54:47;94613.63;;;18.01;100.00
55590;BME280;41452;42.780;23.116;2023-07-13T03:57:13;94632.47;;;18.10;100.00
55590;BME280;41452;42.780;23.116;2023-07-13T03:59:38;94646.00;;;18.19;100.00
55590;BME280;41452;42.780;23.116;2023-07-13T04:02:04;94651.81;;;18.26;100.00
55590;BME280;41452;42.780;23.116;2023-07-13T04:04:30;94626.31;;;18.20;100.00
55590;BME280;41452;42.780;23.116;2023-07-13T04:06:57;94649.97;;;18.27;100.00
55590;BME280;41452;42.780;23.116;2023-07-13T04:09:24;94619.97;;;18.11;100.00
55590;BME280;41452;42.780;23.116;2023-07-13T04:11:49;94659.50;;;18.38;100.00
55590;BME280;41452;42.780;23.116;2023-07-13T04:14:15;94656.03;;;18.42;100.00
55590;BME280;41452;42.780;23.116;2023-07-13T04:16:40;94621.53;;;18.27;100.00
55590;BME280;41452;42.780;23.116;2023-07-13T04:19:06;94632.94;;;18.33;100.00
55590;BME280;41452;42.780;23.116;2023-07-13T04:21:31;94668.69;;;18.66;100.00
55590;BME280;41452;42.780;23.116;2023-07-13T04:23:57;94652.53;;;18.47;100.00
55590;BME280;41452;42.780;23.116;2023-07-13T04:26:23;94658.56;;;18.73;100.00
55590;BME280;41452;42.780;23.116;2023-07-13T04:28:49;94665.72;;;18.83;100.00
55590;BME280;41452;42.780;23.116;2023-07-13T04:31:15;94665.66;;;18.93;100.00
55590;BME280;41452;42.780;23.116;2023-07-13T04:33:40;94655.78;;;18.99;100.00
55590;BME280;41452;42.780;23.116;2023-07-13T04:36:06;94674.06;;;19.16;100.00
55590;BME280;41452;42.780;23.116;2023-07-13T04:38:35;94676.16;;;19.24;100.00
55590;BME280;41452;42.780;23.116;2023-07-13T04:41:02;94671.84;;;19.28;100.00
55590;BME280;41452;42.780;23.116;2023-07-13T04:43:28;94669.50;;;19.16;100.00
55590;BME280;41452;42.780;23.116;2023-07-13T04:45:54;94656.97;;;19.22;100.00
55590;BME280;41452;42.780;23.116;2023-07-13T04:48:20;94684.00;;;19.40;100.00
55590;BME280;41452;42.780;23.116;2023-07-13T04:50:46;94684.19;;;19.53;100.00
55590;BME280;41452;42.780;23.116;2023-07-13T04:53:12;94666.09;;;19.50;100.00
55590;BME280;41452;42.780;23.116;2023-07-13T04:55:38;94676.84;;;19.74;100.00
55590;BME280;41452;42.780;23.116;2023-07-13T04:58:04;94682.38;;;19.83;100.00
55590;BME280;41452;42.780;23.116;2023-07-13T05:00:30;94674.81;;;19.96;100.00
55590;BME280;41452;42.780;23.116;2023-07-13T05:02:56;94684.63;;;20.00;100.00
55590;BME280;41452;42.780;23.116;2023-07-13T05:05:26;94685.63;;;20.09;100.00
55590;BME280;41452;42.780;23.116;2023-07-13T05:07:52;94682.31;;;20.18;100.00
55590;BME280;41452;42.780;23.116;2023-07-13T05:10:17;94687.03;;;20.26;100.00
55590;BME280;41452;42.780;23.116;2023-07-13T05:12:43;94692.00;;;20.38;100.00
55590;BME280;41452;42.780;23.116;2023-07-13T05:15:09;94690.06;;;20.43;100.00
55590;BME280;41452;42.780;23.116;2023-07-13T05:17:34;94683.25;;;20.56;100.00
55590;BME280;41452;42.780;23.116;2023-07-13T05:20:00;94684.41;;;20.74;100.00
55590;BME280;41452;42.780;23.116;2023-07-13T05:22:25;94685.06;;;20.85;100.00
55590;BME280;41452;42.780;23.116;2023-07-13T05:24:50;94688.69;;;20.94;100.00
55590;BME280;41452;42.780;23.116;2023-07-13T05:27:16;94658.94;;;20.82;100.00
55590;BME280;41452;42.780;23.116;2023-07-13T05:29:41;94684.81;;;21.05;100.00
55590;BME280;41452;42.780;23.116;2023-07-13T05:32:07;94641.78;;;20.88;100.00
55590;BME280;41452;42.780;23.116;2023-07-13T05:34:32;94665.31;;;21.05;100.00
55590;BME280;41452;42.780;23.116;2023-07-13T05:36:57;94686.41;;;21.25;100.00
55590;BME280;41452;42.780;23.116;2023-07-13T05:39:23;94673.03;;;21.25;100.00
55590;BME280;41452;42.780;23.116;2023-07-13T05:41:48;94668.13;;;21.33;100.00
55590;BME280;41452;42.780;23.116;2023-07-13T05:44:14;94676.28;;;21.41;100.00
55590;BME280;41452;42.780;23.116;2023-07-13T05:46:39;94648.50;;;21.23;100.00
55590;BME280;41452;42.780;23.116;2023-07-13T05:49:04;94674.34;;;21.47;100.00
55590;BME280;41452;42.780;23.116;2023-07-13T05:51:30;94665.69;;;21.55;100.00
55590;BME280;41452;42.780;23.116;2023-07-13T05:53:55;94677.38;;;21.59;100.00
55590;BME280;41452;42.780;23.116;2023-07-13T05:56:21;94686.81;;;21.71;100.00
55590;BME280;41452;42.780;23.116;2023-07-13T05:58:48;94696.75;;;21.84;100.00
55590;BME280;41452;42.780;23.116;2023-07-13T06:01:14;94703.88;;;21.89;100.00
55590;BME280;41452;42.780;23.116;2023-07-13T06:03:40;94696.81;;;21.98;100.00
55590;BME280;41452;42.780;23.116;2023-07-13T06:06:07;94685.81;;;21.99;100.00
55590;BME280;41452;42.780;23.116;2023-07-13T06:08:33;94704.25;;;22.15;100.00
55590;BME280;41452;42.780;23.116;2023-07-13T06:11:07;94675.22;;;22.08;100.00
55590;BME280;41452;42.780;23.116;2023-07-13T06:13:33;94707.28;;;22.27;100.00
55590;BME280;41452;42.780;23.116;2023-07-13T06:15:59;94692.41;;;22.21;100.00
55590;BME280;41452;42.780;23.116;2023-07-13T06:18:25;94694.00;;;22.36;100.00
55590;BME280;41452;42.780;23.116;2023-07-13T06:20:50;94684.00;;;22.42;100.00
55590;BME280;41452;42.780;23.116;2023-07-13T06:23:17;94696.13;;;22.53;100.00
55590;BME280;41452;42.780;23.116;2023-07-13T06:25:43;94685.91;;;22.55;100.00
55590;BME280;41452;42.780;23.116;2023-07-13T06:28:08;94663.28;;;22.47;100.00
55590;BME280;41452;42.780;23.116;2023-07-13T06:30:34;94690.84;;;22.75;100.00
55590;BME280;41452;42.780;23.116;2023-07-13T06:32:59;94685.41;;;22.81;99.95
55590;BME280;41452;42.780;23.116;2023-07-13T06:35:25;94674.00;;;22.75;100.00
55590;BME280;41452;42.780;23.116;2023-07-13T06:37:50;94689.28;;;22.88;99.54
55590;BME280;41452;42.780;23.116;2023-07-13T06:40:16;94689.84;;;22.99;98.45
55590;BME280;41452;42.780;23.116;2023-07-13T06:42:42;94696.78;;;23.14;97.11
55590;BME280;41452;42.780;23.116;2023-07-13T06:58:04;94692.47;;;24.40;89.65
55590;BME280;41452;42.780;23.116;2023-07-13T07:00:29;94627.81;;;23.87;90.63
55590;BME280;41452;42.780;23.116;2023-07-13T07:02:55;94645.75;;;24.01;90.95
55590;BME280;41452;42.780;23.116;2023-07-13T07:05:20;94699.19;;;24.20;92.86
55590;BME280;41452;42.780;23.116;2023-07-13T07:07:50;94695.13;;;24.31;95.79
55590;BME280;41452;42.780;23.116;2023-07-13T07:10:17;94678.69;;;24.24;95.26
55590;BME280;41452;42.780;23.116;2023-07-13T07:12:42;94657.81;;;24.21;93.76
55590;BME280;41452;42.780;23.116;2023-07-13T07:15:08;94645.97;;;24.13;94.34
55590;BME280;41452;42.780;23.116;2023-07-13T07:17:33;94657.50;;;24.22;93.68
55590;BME280;41452;42.780;23.116;2023-07-13T07:19:59;94655.78;;;24.26;93.31
55590;BME280;41452;42.780;23.116;2023-07-13T07:22:24;94641.63;;;24.35;92.70
55590;BME280;41452;42.780;23.116;2023-07-13T07:24:55;94608.78;;;24.29;90.80
55590;BME280;41452;42.780;23.116;2023-07-13T07:27:21;94607.34;;;24.32;91.34
55590;BME280;41452;42.780;23.116;2023-07-13T07:29:46;94672.78;;;24.93;94.44
55590;BME280;41452;42.780;23.116;2023-07-13T07:32:12;94669.94;;;24.98;91.61
55590;BME280;41452;42.780;23.116;2023-07-13T07:34:37;94630.09;;;24.83;92.12
55590;BME280;41452;42.780;23.116;2023-07-13T07:37:03;94635.19;;;24.93;96.03
55590;BME280;41452;42.780;23.116;2023-07-13T07:39:29;94659.41;;;25.19;95.40
55590;BME280;41452;42.780;23.116;2023-07-13T07:41:54;94612.91;;;24.93;93.49
55590;BME280;41452;42.780;23.116;2023-07-13T07:44:20;94630.50;;;25.25;91.97
55590;BME280;41452;42.780;23.116;2023-07-13T07:46:45;94580.66;;;24.93;90.74
55590;BME280;41452;42.780;23.116;2023-07-13T07:49:11;94642.66;;;25.40;91.18
55590;BME280;41452;42.780;23.116;2023-07-13T07:51:37;94643.13;;;25.51;92.16
55590;BME280;41452;42.780;23.116;2023-07-13T07:54:03;94617.53;;;25.45;91.71
55590;BME280;41452;42.780;23.116;2023-07-13T07:56:29;94653.84;;;25.86;89.46
55590;BME280;41452;42.780;23.116;2023-07-13T07:58:55;94622.03;;;25.79;86.78
55590;BME280;41452;42.780;23.116;2023-07-13T08:01:20;94608.44;;;25.84;83.81
55590;BME280;41452;42.780;23.116;2023-07-13T08:03:46;94630.56;;;25.98;83.73
55590;BME280;41452;42.780;23.116;2023-07-13T08:06:11;94643.69;;;26.09;83.45
55590;BME280;41452;42.780;23.116;2023-07-13T08:08:37;94612.63;;;26.11;85.71
55590;BME280;41452;42.780;23.116;2023-07-13T08:11:04;94616.59;;;26.14;78.91
55590;BME280;41452;42.780;23.116;2023-07-13T08:13:30;94593.75;;;26.29;78.08
55590;BME280;41452;42.780;23.116;2023-07-13T08:15:55;94637.06;;;26.83;78.73
55590;BME280;41452;42.780;23.116;2023-07-13T08:18:21;94607.16;;;26.76;78.63
55590;BME280;41452;42.780;23.116;2023-07-13T08:20:46;94636.41;;;26.86;71.77
55590;BME280;41452;42.780;23.116;2023-07-13T08:23:11;94618.00;;;26.88;71.44
55590;BME280;41452;42.780;23.116;2023-07-13T08:25:37;94605.25;;;26.98;66.62
55590;BME280;41452;42.780;23.116;2023-07-13T08:28:03;94545.19;;;26.76;62.17
55590;BME280;41452;42.780;23.116;2023-07-13T08:30:29;94587.81;;;27.16;64.16
55590;BME280;41452;42.780;23.116;2023-07-13T08:32:54;94617.22;;;27.51;70.65
55590;BME280;41452;42.780;23.116;2023-07-13T08:35:20;94587.78;;;27.46;67.15
55590;BME280;41452;42.780;23.116;2023-07-13T08:37:45;94599.97;;;27.64;59.42
55590;BME280;41452;42.780;23.116;2023-07-13T08:40:11;94625.22;;;27.81;56.99
55590;BME280;41452;42.780;23.116;2023-07-13T08:42:39;94633.38;;;27.93;63.23
55590;BME280;41452;42.780;23.116;2023-07-13T08:45:23;94630.22;;;28.03;65.05
55590;BME280;41452;42.780;23.116;2023-07-13T08:48:00;94645.66;;;28.15;58.13
55590;BME280;41452;42.780;23.116;2023-07-13T08:53:55;94655.94;;;28.34;57.63
55590;BME280;41452;42.780;23.116;2023-07-13T08:56:24;94665.84;;;28.42;64.94
55590;BME280;41452;42.780;23.116;2023-07-13T08:59:11;94663.50;;;28.41;56.25
55590;BME280;41452;42.780;23.116;2023-07-13T09:04:49;94628.50;;;28.32;55.90
55590;BME280;41452;42.780;23.116;2023-07-13T09:07:39;94665.88;;;28.67;63.46
55590;BME280;41452;42.780;23.116;2023-07-13T09:10:29;94672.66;;;28.86;59.51
55590;BME280;41452;42.780;23.116;2023-07-13T09:15:49;94649.09;;;29.11;60.72
55590;BME280;41452;42.780;23.116;2023-07-13T09:18:33;94668.91;;;29.27;55.72
55590;BME280;41452;42.780;23.116;2023-07-13T09:21:04;94648.31;;;29.23;58.03
55590;BME280;41452;42.780;23.116;2023-07-13T09:23:32;94650.63;;;29.36;55.96
55590;BME280;41452;42.780;23.116;2023-07-13T09:26:20;94667.81;;;29.56;56.35
55590;BME280;41452;42.780;23.116;2023-07-13T09:28:53;94676.59;;;29.66;55.17
55590;BME280;41452;42.780;23.116;2023-07-13T09:31:24;94677.13;;;29.71;53.65
55590;BME280;41452;42.780;23.116;2023-07-13T09:33:51;94644.88;;;29.66;51.82
55590;BME280;41452;42.780;23.116;2023-07-13T09:38:44;94627.59;;;29.83;60.40
55590;BME280;41452;42.780;23.116;2023-07-13T09:41:23;94639.41;;;30.07;54.73
55590;BME280;41452;42.780;23.116;2023-07-13T09:44:12;94650.28;;;30.23;56.99
55590;BME280;41452;42.780;23.116;2023-07-13T09:46:43;94642.63;;;30.41;55.69
55590;BME280;41452;42.780;23.116;2023-07-13T09:49:10;94608.00;;;30.34;52.11
55590;BME280;41452;42.780;23.116;2023-07-13T09:51:37;94610.84;;;30.25;54.70
55590;BME280;41452;42.780;23.116;2023-07-13T09:54:04;94592.88;;;30.17;50.89
55590;BME280;41452;42.780;23.116;2023-07-13T09:56:30;94631.59;;;30.49;48.82
55590;BME280;41452;42.780;23.116;2023-07-13T09:58:56;94595.88;;;30.44;48.16
55590;BME280;41452;42.780;23.116;2023-07-13T10:01:34;94598.06;;;30.54;57.93
55590;BME280;41452;42.780;23.116;2023-07-13T10:04:00;94616.53;;;30.68;51.14
55590;BME280;41452;42.780;23.116;2023-07-13T10:06:25;94617.16;;;30.77;55.05
55590;BME280;41452;42.780;23.116;2023-07-13T10:08:52;94580.72;;;30.59;49.73
55590;BME280;41452;42.780;23.116;2023-07-13T10:11:20;94632.31;;;31.14;56.07
55590;BME280;41452;42.780;23.116;2023-07-13T10:13:58;94603.22;;;30.79;47.71
55590;BME280;41452;42.780;23.116;2023-07-13T10:16:26;94628.50;;;30.83;49.08
55590;BME280;41452;42.780;23.116;2023-07-13T10:18:59;94558.00;;;30.63;49.78
55590;BME280;41452;42.780;23.116;2023-07-13T10:21:32;94599.41;;;31.15;49.47
55590;BME280;41452;42.780;23.116;2023-07-13T10:24:20;94617.03;;;31.44;45.92
55590;BME280;41452;42.780;23.116;2023-07-13T10:26:54;94574.94;;;31.31;50.01
55590;BME280;41452;42.780;23.116;2023-07-13T10:29:22;94582.94;;;31.43;47.52
55590;BME280;41452;42.780;23.116;2023-07-13T10:31:49;94579.31;;;31.55;47.33
55590;BME280;41452;42.780;23.116;2023-07-13T10:34:15;94590.13;;;31.75;53.97
55590;BME280;41452;42.780;23.116;2023-07-13T10:36:44;94604.63;;;31.82;49.04
55590;BME280;41452;42.780;23.116;2023-07-13T10:39:16;94589.22;;;31.67;45.28
55590;BME280;41452;42.780;23.116;2023-07-13T10:41:44;94556.13;;;31.81;52.57
55590;BME280;41452;42.780;23.116;2023-07-13T10:44:19;94576.56;;;31.98;52.02
55590;BME280;41452;42.780;23.116;2023-07-13T10:46:46;94576.88;;;32.12;50.68
55590;BME280;41452;42.780;23.116;2023-07-13T10:49:11;94569.25;;;32.21;49.44
55590;BME280;41452;42.780;23.116;2023-07-13T10:51:37;94513.16;;;31.87;51.80
55590;BME280;41452;42.780;23.116;2023-07-13T10:56:35;94559.13;;;32.45;45.38
55590;BME280;41452;42.780;23.116;2023-07-13T11:04:40;94547.38;;;32.37;47.63
55590;BME280;41452;42.780;23.116;2023-07-13T11:07:21;94560.88;;;32.57;50.92
55590;BME280;41452;42.780;23.116;2023-07-13T11:09:54;94524.28;;;32.51;52.39
55590;BME280;41452;42.780;23.116;2023-07-13T11:22:45;94549.44;;;32.97;44.24
55590;BME280;41452;42.780;23.116;2023-07-13T11:25:30;94549.34;;;32.90;42.90
55590;BME280;41452;42.780;23.116;2023-07-13T11:28:23;94552.19;;;33.01;46.81
55590;BME280;41452;42.780;23.116;2023-07-13T11:33:18;94552.31;;;33.12;44.06
55590;BME280;41452;42.780;23.116;2023-07-13T11:38:39;94505.16;;;33.01;45.19
55590;BME280;41452;42.780;23.116;2023-07-13T11:41:16;94529.59;;;33.27;44.11
55590;BME280;41452;42.780;23.116;2023-07-13T11:43:42;94488.41;;;32.99;45.26
55590;BME280;41452;42.780;23.116;2023-07-13T11:46:22;94526.94;;;33.34;41.48
55590;BME280;41452;42.780;23.116;2023-07-13T11:48:49;94523.41;;;33.30;43.23
55590;BME280;41452;42.780;23.116;2023-07-13T11:51:36;94525.88;;;33.43;47.80
55590;BME280;41452;42.780;23.116;2023-07-13T11:54:05;94495.34;;;33.23;43.21
55590;BME280;41452;42.780;23.116;2023-07-13T11:56:33;94471.56;;;33.16;42.89
55590;BME280;41452;42.780;23.116;2023-07-13T11:59:04;94505.75;;;33.51;44.13
55590;BME280;41452;42.780;23.116;2023-07-13T12:01:32;94438.53;;;33.18;44.54
55590;BME280;41452;42.780;23.116;2023-07-13T12:04:00;94487.16;;;33.60;46.15
55590;BME280;41452;42.780;23.116;2023-07-13T12:06:34;94476.28;;;33.60;47.08
55590;BME280;41452;42.780;23.116;2023-07-13T12:09:09;94457.56;;;33.55;45.91
55590;BME280;41452;42.780;23.116;2023-07-13T12:11:40;94470.94;;;33.67;42.89
55590;BME280;41452;42.780;23.116;2023-07-13T12:14:13;94483.84;;;33.74;45.99
55590;BME280;41452;42.780;23.116;2023-07-13T12:16:38;94459.84;;;33.49;47.71
55590;BME280;41452;42.780;23.116;2023-07-13T12:19:21;94462.63;;;33.57;46.08
55590;BME280;41452;42.780;23.116;2023-07-13T12:21:48;94468.50;;;33.59;42.04
55590;BME280;41452;42.780;23.116;2023-07-13T12:24:19;94458.38;;;33.59;40.75
55590;BME280;41452;42.780;23.116;2023-07-13T12:26:51;94471.44;;;33.84;44.59
55590;BME280;41452;42.780;23.116;2023-07-13T12:29:17;94406.13;;;33.43;42.62
55590;BME280;41452;42.780;23.116;2023-07-13T12:31:46;94474.16;;;33.80;45.07
55590;BME280;41452;42.780;23.116;2023-07-13T12:34:14;94449.22;;;33.75;40.60
55590;BME280;41452;42.780;23.116;2023-07-13T12:36:49;94450.38;;;33.77;44.97
55590;BME280;41452;42.780;23.116;2023-07-13T12:39:37;94416.34;;;33.53;41.88
55590;BME280;41452;42.780;23.116;2023-07-13T12:42:26;94468.41;;;33.93;42.23
55590;BME280;41452;42.780;23.116;2023-07-13T12:47:20;94429.00;;;33.76;39.78
55590;BME280;41452;42.780;23.116;2023-07-13T12:49:50;94452.38;;;33.80;39.68
55590;BME280;41452;42.780;23.116;2023-07-13T12:52:31;94454.44;;;33.94;42.68
55590;BME280;41452;42.780;23.116;2023-07-13T12:55:17;94441.94;;;33.89;46.82
55590;BME280;41452;42.780;23.116;2023-07-13T12:57:51;94418.06;;;33.72;41.50
55590;BME280;41452;42.780;23.116;2023-07-13T13:00:35;94411.50;;;33.77;40.94
55590;BME280;41452;42.780;23.116;2023-07-13T13:03:16;94414.97;;;33.74;41.91
55590;BME280;41452;42.780;23.116;2023-07-13T13:05:44;94426.28;;;33.76;39.99
55590;BME280;41452;42.780;23.116;2023-07-13T13:08:11;94427.03;;;33.72;40.61
55590;BME280;41452;42.780;23.116;2023-07-13T13:10:37;94423.00;;;33.63;44.10
55590;BME280;41452;42.780;23.116;2023-07-13T13:13:03;94429.31;;;33.67;43.41
55590;BME280;41452;42.780;23.116;2023-07-13T13:15:28;94432.09;;;33.74;42.52
55590;BME280;41452;42.780;23.116;2023-07-13T13:17:55;94400.84;;;33.64;43.92
55590;BME280;41452;42.780;23.116;2023-07-13T13:20:21;94421.28;;;33.85;42.24
55590;BME280;41452;42.780;23.116;2023-07-13T13:22:48;94407.59;;;33.74;45.08
55590;BME280;41452;42.780;23.116;2023-07-13T13:25:15;94402.03;;;33.63;43.28
55590;BME280;41452;42.780;23.116;2023-07-13T13:27:41;94407.59;;;33.74;38.60
55590;BME280;41452;42.780;23.116;2023-07-13T13:30:15;94417.19;;;33.64;42.70
55590;BME280;41452;42.780;23.116;2023-07-13T13:32:44;94409.13;;;33.71;38.40
55590;BME280;41452;42.780;23.116;2023-07-13T13:35:14;94411.13;;;33.78;38.49
55590;BME280;41452;42.780;23.116;2023-07-13T13:37:40;94404.00;;;33.66;42.97
55590;BME280;41452;42.780;23.116;2023-07-13T13:40:20;94390.66;;;33.54;46.36
55590;BME280;41452;42.780;23.116;2023-07-13T13:42:48;94392.94;;;33.48;44.83